sensor_id;sensor_type;location;lat;lon;timestamp;P1;durP1;ratioP1;P2;durP2;ratioP2
55212;SDS011;41083;52.932;6.674;2023-08-01T00:02:05;10.95;;;2.85;;
55212;SDS011;41083;52.932;6.674;2023-08-01T00:04:31;3.55;;;2.10;;
55212;SDS011;41083;52.932;6.674;2023-08-01T00:06:57;6.63;;;2.30;;
55212;SDS011;41083;52.932;6.674;2023-08-01T00:09:23;6.05;;;2.45;;
55212;SDS011;41083;52.932;6.674;2023-08-01T00:11:48;5.18;;;1.88;;
55212;SDS011;41083;52.932;6.674;2023-08-01T00:14:14;6.13;;;1.88;;
55212;SDS011;41083;52.932;6.674;2023-08-01T00:16:39;5.15;;;1.73;;
55212;SDS011;41083;52.932;6.674;2023-08-01T00:19:05;5.28;;;1.80;;
55212;SDS011;41083;52.932;6.674;2023-08-01T00:21:31;3.90;;;1.98;;
55212;SDS011;41083;52.932;6.674;2023-08-01T00:23:57;6.25;;;2.38;;
55212;SDS011;41083;52.932;6.674;2023-08-01T00:26:22;5.18;;;2.08;;
55212;SDS011;41083;52.932;6.674;2023-08-01T00:28:48;5.05;;;2.25;;
55212;SDS011;41083;52.932;6.674;2023-08-01T00:31:14;6.82;;;2.50;;
55212;SDS011;41083;52.932;6.674;2023-08-01T00:33:40;5.63;;;1.95;;
55212;SDS011;41083;52.932;6.674;2023-08-01T00:36:05;6.20;;;2.42;;
55212;SDS011;41083;52.932;6.674;2023-08-01T00:38:34;7.13;;;2.30;;
55212;SDS011;41083;52.932;6.674;2023-08-01T00:41:00;8.30;;;2.75;;
55212;SDS011;41083;52.932;6.674;2023-08-01T00:43:26;5.70;;;3.03;;
55212;SDS011;41083;52.932;6.674;2023-08-01T00:45:52;7.75;;;2.75;;
55212;SDS011;41083;52.932;6.674;2023-08-01T00:48:23;6.80;;;2.70;;
55212;SDS011;41083;52.932;6.674;2023-08-01T00:50:49;7.55;;;2.67;;
55212;SDS011;41083;52.932;6.674;2023-08-01T00:53:16;5.35;;;2.60;;
55212;SDS011;41083;52.932;6.674;2023-08-01T00:55:42;6.18;;;2.35;;
55212;SDS011;41083;52.932;6.674;2023-08-01T00:58:08;7.47;;;2.63;;
55212;SDS011;41083;52.932;6.674;2023-08-01T01:00:34;6.35;;;2.47;;
55212;SDS011;41083;52.932;6.674;2023-08-01T01:03:00;7.93;;;2.72;;
55212;SDS011;41083;52.932;6.674;2023-08-01T01:05:26;7.03;;;2.80;;
55212;SDS011;41083;52.932;6.674;2023-08-01T01:07:56;7.47;;;2.92;;
55212;SDS011;41083;52.932;6.674;2023-08-01T01:10:23;6.70;;;2.95;;
55212;SDS011;41083;52.932;6.674;2023-08-01T01:12:48;6.45;;;2.63;;
55212;SDS011;41083;52.932;6.674;2023-08-01T01:15:15;6.20;;;2.53;;
55212;SDS011;41083;52.932;6.674;2023-08-01T01:17:41;9.40;;;2.63;;
55212;SDS011;41083;52.932;6.674;2023-08-01T01:20:06;8.93;;;2.53;;
55212;SDS011;41083;52.932;6.674;2023-08-01T01:22:32;7.43;;;2.80;;
55212;SDS011;41083;52.932;6.674;2023-08-01T01:24:59;7.07;;;2.30;;
55212;SDS011;41083;52.932;6.674;2023-08-01T01:27:26;7.50;;;2.90;;
55212;SDS011;41083;52.932;6.674;2023-08-01T01:29:52;6.97;;;2.60;;
55212;SDS011;41083;52.932;6.674;2023-08-01T01:32:20;7.60;;;2.80;;
55212;SDS011;41083;52.932;6.674;2023-08-01T01:34:46;5.57;;;2.60;;
55212;SDS011;41083;52.932;6.674;2023-08-01T01:37:12;5.93;;;2.33;;
55212;SDS011;41083;52.932;6.674;2023-08-01T01:39:37;4.72;;;2.75;;
55212;SDS011;41083;52.932;6.674;2023-08-01T01:42:03;6.10;;;2.72;;
55212;SDS011;41083;52.932;6.674;2023-08-01T01:44:29;6.97;;;3.13;;
55212;SDS011;41083;52.932;6.674;2023-08-01T01:46:55;9.65;;;2.42;;
55212;SDS011;41083;52.932;6.674;2023-08-01T01:49:20;8.40;;;2.88;;
55212;SDS011;41083;52.932;6.674;2023-08-01T01:51:46;6.43;;;2.50;;
55212;SDS011;41083;52.932;6.674;2023-08-01T01:54:11;8.55;;;2.80;;
55212;SDS011;41083;52.932;6.674;2023-08-01T01:56:37;5.85;;;2.53;;
55212;SDS011;41083;52.932;6.674;2023-08-01T01:59:02;6.50;;;2.47;;
55212;SDS011;41083;52.932;6.674;2023-08-01T02:01:28;4.88;;;2.53;;
55212;SDS011;41083;52.932;6.674;2023-08-01T02:03:54;9.15;;;3.00;;
55212;SDS011;41083;52.932;6.674;2023-08-01T02:06:19;4.43;;;2.17;;
55212;SDS011;41083;52.932;6.674;2023-08-01T02:08:45;5.30;;;2.10;;
55212;SDS011;41083;52.932;6.674;2023-08-01T02:11:10;5.32;;;1.98;;
55212;SDS011;41083;52.932;6.674;2023-08-01T02:13:36;4.68;;;2.30;;
55212;SDS011;41083;52.932;6.674;2023-08-01T02:16:01;6.35;;;1.88;;
55212;SDS011;41083;52.932;6.674;2023-08-01T02:18:27;6.78;;;1.85;;
55212;SDS011;41083;52.932;6.674;2023-08-01T02:20:53;5.50;;;2.17;;
55212;SDS011;41083;52.932;6.674;2023-08-01T02:23:18;3.88;;;1.60;;
55212;SDS011;41083;52.932;6.674;2023-08-01T02:25:44;5.15;;;1.58;;
55212;SDS011;41083;52.932;6.674;2023-08-01T02:28:09;4.00;;;1.70;;
55212;SDS011;41083;52.932;6.674;2023-08-01T02:30:35;4.40;;;1.50;;
55212;SDS011;41083;52.932;6.674;2023-08-01T02:33:01;5.47;;;2.00;;
55212;SDS011;41083;52.932;6.674;2023-08-01T02:35:26;5.53;;;1.95;;
55212;SDS011;41083;52.932;6.674;2023-08-01T02:37:53;7.13;;;1.70;;
55212;SDS011;41083;52.932;6.674;2023-08-01T02:40:19;6.35;;;1.75;;
55212;SDS011;41083;52.932;6.674;2023-08-01T02:42:44;6.00;;;1.52;;
55212;SDS011;41083;52.932;6.674;2023-08-01T02:45:10;4.97;;;1.48;;
55212;SDS011;41083;52.932;6.674;2023-08-01T02:47:36;7.18;;;2.05;;
55212;SDS011;41083;52.932;6.674;2023-08-01T02:50:01;5.57;;;1.42;;
55212;SDS011;41083;52.932;6.674;2023-08-01T02:52:27;4.43;;;1.63;;
55212;SDS011;41083;52.932;6.674;2023-08-01T02:54:53;7.28;;;1.42;;
55212;SDS011;41083;52.932;6.674;2023-08-01T02:57:18;6.00;;;1.77;;
55212;SDS011;41083;52.932;6.674;2023-08-01T02:59:44;6.05;;;1.40;;
55212;SDS011;41083;52.932;6.674;2023-08-01T03:02:10;3.55;;;1.45;;
55212;SDS011;41083;52.932;6.674;2023-08-01T03:04:35;5.78;;;1.92;;
55212;SDS011;41083;52.932;6.674;2023-08-01T03:07:01;6.47;;;1.75;;
55212;SDS011;41083;52.932;6.674;2023-08-01T03:09:26;4.80;;;1.70;;
55212;SDS011;41083;52.932;6.674;2023-08-01T03:11:52;6.10;;;1.85;;
55212;SDS011;41083;52.932;6.674;2023-08-01T03:14:18;4.55;;;1.80;;
55212;SDS011;41083;52.932;6.674;2023-08-01T03:16:43;6.57;;;1.73;;
55212;SDS011;41083;52.932;6.674;2023-08-01T03:19:09;6.53;;;1.92;;
55212;SDS011;41083;52.932;6.674;2023-08-01T03:21:34;4.32;;;1.80;;
55212;SDS011;41083;52.932;6.674;2023-08-01T03:24:01;6.15;;;2.40;;
55212;SDS011;41083;52.932;6.674;2023-08-01T03:26:28;4.97;;;2.15;;
55212;SDS011;41083;52.932;6.674;2023-08-01T03:28:54;5.55;;;1.90;;
55212;SDS011;41083;52.932;6.674;2023-08-01T03:31:21;4.43;;;1.95;;
55212;SDS011;41083;52.932;6.674;2023-08-01T03:33:47;6.05;;;1.85;;
55212;SDS011;41083;52.932;6.674;2023-08-01T03:36:13;3.70;;;1.65;;
55212;SDS011;41083;52.932;6.674;2023-08-01T03:38:39;5.03;;;1.88;;
55212;SDS011;41083;52.932;6.674;2023-08-01T03:41:05;3.15;;;1.45;;
55212;SDS011;41083;52.932;6.674;2023-08-01T03:43:30;3.40;;;1.55;;
55212;SDS011;41083;52.932;6.674;2023-08-01T03:45:56;4.75;;;1.08;;
55212;SDS011;41083;52.932;6.674;2023-08-01T03:48:22;3.10;;;0.98;;
55212;SDS011;41083;52.932;6.674;2023-08-01T03:50:47;3.63;;;0.82;;
55212;SDS011;41083;52.932;6.674;2023-08-01T03:53:13;2.13;;;0.85;;
55212;SDS011;41083;52.932;6.674;2023-08-01T03:55:39;1.77;;;0.68;;
55212;SDS011;41083;52.932;6.674;2023-08-01T03:58:04;2.08;;;0.70;;
55212;SDS011;41083;52.932;6.674;2023-08-01T04:00:30;4.75;;;0.80;;
55212;SDS011;41083;52.932;6.674;2023-08-01T04:02:58;1.90;;;0.80;;
55212;SDS011;41083;52.932;6.674;2023-08-01T04:05:24;1.35;;;0.47;;
55212;SDS011;41083;52.932;6.674;2023-08-01T04:07:49;3.80;;;0.88;;
55212;SDS011;41083;52.932;6.674;2023-08-01T04:10:15;2.00;;;0.80;;
55212;SDS011;41083;52.932;6.674;2023-08-01T04:12:40;1.85;;;0.63;;
55212;SDS011;41083;52.932;6.674;2023-08-01T04:15:07;2.28;;;0.68;;
55212;SDS011;41083;52.932;6.674;2023-08-01T04:17:33;3.88;;;1.10;;
55212;SDS011;41083;52.932;6.674;2023-08-01T04:19:59;2.97;;;0.70;;
55212;SDS011;41083;52.932;6.674;2023-08-01T04:22:25;1.45;;;0.65;;
55212;SDS011;41083;52.932;6.674;2023-08-01T04:24:50;2.03;;;0.45;;
55212;SDS011;41083;52.932;6.674;2023-08-01T04:27:16;1.65;;;0.50;;
55212;SDS011;41083;52.932;6.674;2023-08-01T04:29:42;1.95;;;0.65;;
55212;SDS011;41083;52.932;6.674;2023-08-01T04:32:08;2.45;;;0.60;;
55212;SDS011;41083;52.932;6.674;2023-08-01T04:34:36;0.98;;;0.40;;
55212;SDS011;41083;52.932;6.674;2023-08-01T04:37:01;3.00;;;0.90;;
55212;SDS011;41083;52.932;6.674;2023-08-01T04:39:27;1.05;;;0.47;;
55212;SDS011;41083;52.932;6.674;2023-08-01T04:41:52;2.05;;;0.98;;
55212;SDS011;41083;52.932;6.674;2023-08-01T04:44:18;2.55;;;0.45;;
55212;SDS011;41083;52.932;6.674;2023-08-01T04:46:44;2.10;;;0.40;;
55212;SDS011;41083;52.932;6.674;2023-08-01T04:49:09;2.22;;;0.50;;
55212;SDS011;41083;52.932;6.674;2023-08-01T04:51:35;0.90;;;0.40;;
55212;SDS011;41083;52.932;6.674;2023-08-01T04:54:00;0.77;;;0.30;;
55212;SDS011;41083;52.932;6.674;2023-08-01T04:56:26;1.70;;;0.57;;
55212;SDS011;41083;52.932;6.674;2023-08-01T04:58:51;2.10;;;0.50;;
55212;SDS011;41083;52.932;6.674;2023-08-01T05:01:17;2.80;;;0.60;;
55212;SDS011;41083;52.932;6.674;2023-08-01T05:03:42;1.20;;;0.40;;
55212;SDS011;41083;52.932;6.674;2023-08-01T05:06:08;2.00;;;0.60;;
55212;SDS011;41083;52.932;6.674;2023-08-01T05:08:34;1.42;;;0.40;;
55212;SDS011;41083;52.932;6.674;2023-08-01T05:10:59;1.10;;;0.63;;
55212;SDS011;41083;52.932;6.674;2023-08-01T05:13:25;1.98;;;0.50;;
55212;SDS011;41083;52.932;6.674;2023-08-01T05:15:50;2.72;;;0.50;;
55212;SDS011;41083;52.932;6.674;2023-08-01T05:18:16;0.95;;;0.38;;
55212;SDS011;41083;52.932;6.674;2023-08-01T05:20:42;1.48;;;0.40;;
55212;SDS011;41083;52.932;6.674;2023-08-01T05:23:08;1.88;;;0.70;;
55212;SDS011;41083;52.932;6.674;2023-08-01T05:25:34;1.10;;;0.32;;
55212;SDS011;41083;52.932;6.674;2023-08-01T05:28:00;1.30;;;0.40;;
55212;SDS011;41083;52.932;6.674;2023-08-01T05:30:25;1.15;;;0.45;;
55212;SDS011;41083;52.932;6.674;2023-08-01T05:32:51;1.73;;;0.40;;
55212;SDS011;41083;52.932;6.674;2023-08-01T05:35:18;1.35;;;0.40;;
55212;SDS011;41083;52.932;6.674;2023-08-01T05:37:45;2.92;;;0.30;;
55212;SDS011;41083;52.932;6.674;2023-08-01T05:40:10;1.35;;;0.50;;
55212;SDS011;41083;52.932;6.674;2023-08-01T05:42:36;1.90;;;0.50;;
55212;SDS011;41083;52.932;6.674;2023-08-01T05:45:02;1.98;;;0.60;;
55212;SDS011;41083;52.932;6.674;2023-08-01T05:47:29;1.52;;;0.45;;
55212;SDS011;41083;52.932;6.674;2023-08-01T05:49:54;2.15;;;0.57;;
55212;SDS011;41083;52.932;6.674;2023-08-01T05:52:20;1.20;;;0.50;;
55212;SDS011;41083;52.932;6.674;2023-08-01T05:54:46;2.10;;;0.68;;
55212;SDS011;41083;52.932;6.674;2023-08-01T05:57:11;1.88;;;0.57;;
55212;SDS011;41083;52.932;6.674;2023-08-01T05:59:37;0.82;;;0.50;;
55212;SDS011;41083;52.932;6.674;2023-08-01T06:02:02;1.73;;;0.60;;
55212;SDS011;41083;52.932;6.674;2023-08-01T06:04:28;1.55;;;0.70;;
55212;SDS011;41083;52.932;6.674;2023-08-01T06:06:54;1.23;;;0.60;;
55212;SDS011;41083;52.932;6.674;2023-08-01T06:09:19;1.88;;;0.50;;
55212;SDS011;41083;52.932;6.674;2023-08-01T06:11:45;0.80;;;0.50;;
55212;SDS011;41083;52.932;6.674;2023-08-01T06:14:10;0.75;;;0.40;;
55212;SDS011;41083;52.932;6.674;2023-08-01T06:16:36;2.88;;;0.52;;
55212;SDS011;41083;52.932;6.674;2023-08-01T06:19:02;4.07;;;0.60;;
55212;SDS011;41083;52.932;6.674;2023-08-01T06:21:27;2.05;;;0.80;;
55212;SDS011;41083;52.932;6.674;2023-08-01T06:23:53;1.35;;;0.55;;
55212;SDS011;41083;52.932;6.674;2023-08-01T06:26:19;1.98;;;0.63;;
55212;SDS011;41083;52.932;6.674;2023-08-01T06:28:44;1.63;;;0.60;;
55212;SDS011;41083;52.932;6.674;2023-08-01T06:31:10;2.63;;;0.70;;
55212;SDS011;41083;52.932;6.674;2023-08-01T06:33:35;1.35;;;0.60;;
55212;SDS011;41083;52.932;6.674;2023-08-01T06:36:01;2.22;;;0.50;;
55212;SDS011;41083;52.932;6.674;2023-08-01T06:38:27;2.30;;;1.02;;
55212;SDS011;41083;52.932;6.674;2023-08-01T06:40:52;1.92;;;0.70;;
55212;SDS011;41083;52.932;6.674;2023-08-01T06:43:18;1.33;;;0.47;;
55212;SDS011;41083;52.932;6.674;2023-08-01T06:45:44;2.72;;;0.80;;
55212;SDS011;41083;52.932;6.674;2023-08-01T06:48:09;3.42;;;0.88;;
55212;SDS011;41083;52.932;6.674;2023-08-01T06:50:35;2.78;;;0.60;;
55212;SDS011;41083;52.932;6.674;2023-08-01T06:53:00;1.88;;;0.80;;
55212;SDS011;41083;52.932;6.674;2023-08-01T06:55:26;2.58;;;0.63;;
55212;SDS011;41083;52.932;6.674;2023-08-01T06:57:52;3.05;;;0.90;;
55212;SDS011;41083;52.932;6.674;2023-08-01T07:00:18;2.10;;;0.70;;
55212;SDS011;41083;52.932;6.674;2023-08-01T07:02:43;1.27;;;0.60;;
55212;SDS011;41083;52.932;6.674;2023-08-01T07:05:09;2.35;;;0.55;;
55212;SDS011;41083;52.932;6.674;2023-08-01T07:07:35;1.98;;;0.50;;
55212;SDS011;41083;52.932;6.674;2023-08-01T07:10:00;4.25;;;0.50;;
55212;SDS011;41083;52.932;6.674;2023-08-01T07:12:26;3.13;;;0.50;;
55212;SDS011;41083;52.932;6.674;2023-08-01T07:14:51;4.05;;;0.70;;
55212;SDS011;41083;52.932;6.674;2023-08-01T07:17:17;2.53;;;0.70;;
55212;SDS011;41083;52.932;6.674;2023-08-01T07:19:43;1.20;;;0.52;;
55212;SDS011;41083;52.932;6.674;2023-08-01T07:22:08;6.28;;;0.82;;
55212;SDS011;41083;52.932;6.674;2023-08-01T07:24:34;0.90;;;0.40;;
55212;SDS011;41083;52.932;6.674;2023-08-01T07:26:59;1.27;;;0.55;;
55212;SDS011;41083;52.932;6.674;2023-08-01T07:29:25;1.10;;;0.45;;
55212;SDS011;41083;52.932;6.674;2023-08-01T07:31:51;3.38;;;0.60;;
55212;SDS011;41083;52.932;6.674;2023-08-01T07:34:16;3.00;;;0.38;;
55212;SDS011;41083;52.932;6.674;2023-08-01T07:36:42;1.10;;;0.40;;
55212;SDS011;41083;52.932;6.674;2023-08-01T07:39:08;2.08;;;0.50;;
55212;SDS011;41083;52.932;6.674;2023-08-01T07:41:33;2.97;;;0.45;;
55212;SDS011;41083;52.932;6.674;2023-08-01T07:44:01;1.60;;;0.60;;
55212;SDS011;41083;52.932;6.674;2023-08-01T07:46:27;5.13;;;0.70;;
55212;SDS011;41083;52.932;6.674;2023-08-01T07:48:53;2.75;;;0.50;;
55212;SDS011;41083;52.932;6.674;2023-08-01T07:51:19;2.78;;;0.50;;
55212;SDS011;41083;52.932;6.674;2023-08-01T07:53:45;2.35;;;0.57;;
55212;SDS011;41083;52.932;6.674;2023-08-01T07:56:10;2.72;;;0.50;;
55212;SDS011;41083;52.932;6.674;2023-08-01T07:58:36;2.08;;;1.02;;
55212;SDS011;41083;52.932;6.674;2023-08-01T08:01:05;3.33;;;0.55;;
55212;SDS011;41083;52.932;6.674;2023-08-01T08:03:31;2.47;;;0.40;;
55212;SDS011;41083;52.932;6.674;2023-08-01T08:05:57;4.22;;;0.60;;
55212;SDS011;41083;52.932;6.674;2023-08-01T08:08:23;3.28;;;0.65;;
55212;SDS011;41083;52.932;6.674;2023-08-01T08:10:49;1.90;;;0.70;;
55212;SDS011;41083;52.932;6.674;2023-08-01T08:13:15;4.07;;;1.00;;
55212;SDS011;41083;52.932;6.674;2023-08-01T08:15:41;3.75;;;0.55;;
55212;SDS011;41083;52.932;6.674;2023-08-01T08:18:06;1.92;;;0.75;;
55212;SDS011;41083;52.932;6.674;2023-08-01T08:20:34;2.05;;;0.63;;
55212;SDS011;41083;52.932;6.674;2023-08-01T08:23:06;1.52;;;0.70;;
55212;SDS011;41083;52.932;6.674;2023-08-01T08:25:32;0.80;;;0.40;;
55212;SDS011;41083;52.932;6.674;2023-08-01T08:27:58;3.22;;;0.65;;
55212;SDS011;41083;52.932;6.674;2023-08-01T08:30:24;2.17;;;0.40;;
55212;SDS011;41083;52.932;6.674;2023-08-01T08:32:49;2.72;;;0.50;;
55212;SDS011;41083;52.932;6.674;2023-08-01T08:35:15;2.15;;;0.63;;
55212;SDS011;41083;52.932;6.674;2023-08-01T08:37:41;2.35;;;0.70;;
55212;SDS011;41083;52.932;6.674;2023-08-01T08:40:06;1.92;;;0.50;;
55212;SDS011;41083;52.932;6.674;2023-08-01T08:42:33;1.63;;;0.40;;
55212;SDS011;41083;52.932;6.674;2023-08-01T08:45:01;2.72;;;0.43;;
55212;SDS011;41083;52.932;6.674;2023-08-01T08:47:27;1.02;;;0.50;;
55212;SDS011;41083;52.932;6.674;2023-08-01T08:49:55;1.23;;;0.73;;
55212;SDS011;41083;52.932;6.674;2023-08-01T08:52:22;1.67;;;0.55;;
55212;SDS011;41083;52.932;6.674;2023-08-01T08:54:49;1.30;;;0.50;;
55212;SDS011;41083;52.932;6.674;2023-08-01T08:57:16;2.67;;;0.40;;
55212;SDS011;41083;52.932;6.674;2023-08-01T08:59:43;2.78;;;0.65;;
55212;SDS011;41083;52.932;6.674;2023-08-01T09:02:09;2.88;;;0.57;;
55212;SDS011;41083;52.932;6.674;2023-08-01T09:04:35;1.27;;;0.60;;
55212;SDS011;41083;52.932;6.674;2023-08-01T09:07:02;2.28;;;0.70;;
55212;SDS011;41083;52.932;6.674;2023-08-01T09:09:31;1.48;;;0.50;;
55212;SDS011;41083;52.932;6.674;2023-08-01T09:11:59;2.33;;;0.63;;
55212;SDS011;41083;52.932;6.674;2023-08-01T09:14:25;3.72;;;0.75;;
55212;SDS011;41083;52.932;6.674;2023-08-01T09:16:50;3.65;;;0.60;;
55212;SDS011;41083;52.932;6.674;2023-08-01T09:19:20;1.73;;;0.73;;
55212;SDS011;41083;52.932;6.674;2023-08-01T09:21:46;2.13;;;0.63;;
55212;SDS011;41083;52.932;6.674;2023-08-01T09:24:19;1.48;;;0.60;;
55212;SDS011;41083;52.932;6.674;2023-08-01T09:26:46;3.30;;;0.60;;
55212;SDS011;41083;52.932;6.674;2023-08-01T09:29:15;2.70;;;0.70;;
55212;SDS011;41083;52.932;6.674;2023-08-01T09:31:42;2.53;;;0.70;;
55212;SDS011;41083;52.932;6.674;2023-08-01T09:34:22;5.07;;;0.75;;
55212;SDS011;41083;52.932;6.674;2023-08-01T09:36:49;0.93;;;0.60;;
55212;SDS011;41083;52.932;6.674;2023-08-01T09:39:16;3.13;;;0.52;;
55212;SDS011;41083;52.932;6.674;2023-08-01T09:41:44;2.25;;;0.57;;
55212;SDS011;41083;52.932;6.674;2023-08-01T09:44:16;3.25;;;0.70;;
55212;SDS011;41083;52.932;6.674;2023-08-01T09:46:42;1.27;;;0.70;;
55212;SDS011;41083;52.932;6.674;2023-08-01T09:49:12;3.10;;;0.60;;
55212;SDS011;41083;52.932;6.674;2023-08-01T09:51:48;1.67;;;0.77;;
55212;SDS011;41083;52.932;6.674;2023-08-01T09:54:15;1.40;;;0.60;;
55212;SDS011;41083;52.932;6.674;2023-08-01T09:56:43;1.67;;;0.57;;
55212;SDS011;41083;52.932;6.674;2023-08-01T09:59:10;5.20;;;0.93;;
55212;SDS011;41083;52.932;6.674;2023-08-01T10:01:36;2.20;;;0.77;;
55212;SDS011;41083;52.932;6.674;2023-08-01T10:04:05;1.92;;;1.00;;
55212;SDS011;41083;52.932;6.674;2023-08-01T10:06:33;3.50;;;0.70;;
55212;SDS011;41083;52.932;6.674;2023-08-01T10:09:01;1.70;;;0.63;;
55212;SDS011;41083;52.932;6.674;2023-08-01T10:11:27;1.25;;;0.52;;
55212;SDS011;41083;52.932;6.674;2023-08-01T10:13:58;1.30;;;0.57;;
55212;SDS011;41083;52.932;6.674;2023-08-01T10:16:24;1.88;;;0.50;;
55212;SDS011;41083;52.932;6.674;2023-08-01T10:18:50;1.45;;;0.55;;
55212;SDS011;41083;52.932;6.674;2023-08-01T10:21:16;2.97;;;0.60;;
55212;SDS011;41083;52.932;6.674;2023-08-01T10:23:43;2.20;;;0.50;;
55212;SDS011;41083;52.932;6.674;2023-08-01T10:26:10;2.95;;;0.60;;
55212;SDS011;41083;52.932;6.674;2023-08-01T10:28:38;1.45;;;0.60;;
55212;SDS011;41083;52.932;6.674;2023-08-01T10:31:07;1.05;;;0.50;;
55212;SDS011;41083;52.932;6.674;2023-08-01T10:33:38;2.25;;;0.68;;
55212;SDS011;41083;52.932;6.674;2023-08-01T10:36:18;2.83;;;0.70;;
55212;SDS011;41083;52.932;6.674;2023-08-01T10:38:46;3.58;;;0.60;;
55212;SDS011;41083;52.932;6.674;2023-08-01T10:41:19;3.35;;;1.30;;
55212;SDS011;41083;52.932;6.674;2023-08-01T10:46:44;1.17;;;0.65;;
55212;SDS011;41083;52.932;6.674;2023-08-01T10:49:10;2.13;;;0.82;;
55212;SDS011;41083;52.932;6.674;2023-08-01T10:51:35;3.45;;;0.85;;
55212;SDS011;41083;52.932;6.674;2023-08-01T10:54:01;2.35;;;0.70;;
55212;SDS011;41083;52.932;6.674;2023-08-01T10:56:27;3.10;;;0.70;;
55212;SDS011;41083;52.932;6.674;2023-08-01T10:58:54;2.13;;;0.80;;
55212;SDS011;41083;52.932;6.674;2023-08-01T11:01:19;2.25;;;0.70;;
55212;SDS011;41083;52.932;6.674;2023-08-01T11:03:45;1.38;;;0.60;;
55212;SDS011;41083;52.932;6.674;2023-08-01T11:06:10;2.45;;;0.95;;
55212;SDS011;41083;52.932;6.674;2023-08-01T11:08:36;2.17;;;0.65;;
55212;SDS011;41083;52.932;6.674;2023-08-01T11:11:04;1.80;;;1.00;;
55212;SDS011;41083;52.932;6.674;2023-08-01T11:13:39;1.30;;;0.75;;
55212;SDS011;41083;52.932;6.674;2023-08-01T11:16:05;1.77;;;1.02;;
55212;SDS011;41083;52.932;6.674;2023-08-01T11:18:41;4.30;;;1.10;;
55212;SDS011;41083;52.932;6.674;2023-08-01T11:21:07;3.63;;;1.00;;
55212;SDS011;41083;52.932;6.674;2023-08-01T11:23:33;4.00;;;1.00;;
55212;SDS011;41083;52.932;6.674;2023-08-01T11:25:59;3.20;;;1.00;;
55212;SDS011;41083;52.932;6.674;2023-08-01T11:28:24;1.50;;;0.60;;
55212;SDS011;41083;52.932;6.674;2023-08-01T11:30:50;1.75;;;0.80;;
55212;SDS011;41083;52.932;6.674;2023-08-01T11:33:17;3.00;;;0.85;;
55212;SDS011;41083;52.932;6.674;2023-08-01T11:35:43;3.45;;;0.80;;
55212;SDS011;41083;52.932;6.674;2023-08-01T11:38:09;3.83;;;0.80;;
55212;SDS011;41083;52.932;6.674;2023-08-01T11:40:35;3.97;;;1.25;;
55212;SDS011;41083;52.932;6.674;2023-08-01T11:43:01;2.08;;;0.75;;
55212;SDS011;41083;52.932;6.674;2023-08-01T11:45:27;2.72;;;0.90;;
55212;SDS011;41083;52.932;6.674;2023-08-01T11:47:52;2.03;;;0.90;;
55212;SDS011;41083;52.932;6.674;2023-08-01T11:50:22;2.53;;;0.90;;
55212;SDS011;41083;52.932;6.674;2023-08-01T11:52:48;2.55;;;0.73;;
55212;SDS011;41083;52.932;6.674;2023-08-01T11:55:20;7.75;;;1.23;;
55212;SDS011;41083;52.932;6.674;2023-08-01T11:57:57;5.75;;;0.88;;
55212;SDS011;41083;52.932;6.674;2023-08-01T12:00:26;4.90;;;1.02;;
55212;SDS011;41083;52.932;6.674;2023-08-01T12:03:03;2.58;;;1.02;;
55212;SDS011;41083;52.932;6.674;2023-08-01T12:05:30;1.85;;;0.85;;
55212;SDS011;41083;52.932;6.674;2023-08-01T12:07:56;3.33;;;1.35;;
55212;SDS011;41083;52.932;6.674;2023-08-01T12:10:37;2.00;;;0.90;;
55212;SDS011;41083;52.932;6.674;2023-08-01T12:13:03;1.67;;;1.00;;
55212;SDS011;41083;52.932;6.674;2023-08-01T12:15:29;3.50;;;1.23;;
55212;SDS011;41083;52.932;6.674;2023-08-01T12:17:54;3.15;;;1.02;;
55212;SDS011;41083;52.932;6.674;2023-08-01T12:20:22;3.30;;;1.15;;
55212;SDS011;41083;52.932;6.674;2023-08-01T12:22:47;2.85;;;0.80;;
55212;SDS011;41083;52.932;6.674;2023-08-01T12:25:13;2.42;;;0.88;;
55212;SDS011;41083;52.932;6.674;2023-08-01T12:27:38;2.92;;;1.00;;
55212;SDS011;41083;52.932;6.674;2023-08-01T12:30:04;2.05;;;0.80;;
55212;SDS011;41083;52.932;6.674;2023-08-01T12:32:30;3.90;;;1.05;;
55212;SDS011;41083;52.932;6.674;2023-08-01T12:34:56;4.97;;;1.30;;
55212;SDS011;41083;52.932;6.674;2023-08-01T12:37:21;5.22;;;0.90;;
55212;SDS011;41083;52.932;6.674;2023-08-01T12:39:47;5.47;;;0.90;;
55212;SDS011;41083;52.932;6.674;2023-08-01T12:42:12;2.25;;;1.17;;
55212;SDS011;41083;52.932;6.674;2023-08-01T12:44:38;2.67;;;0.88;;
55212;SDS011;41083;52.932;6.674;2023-08-01T12:47:03;2.72;;;1.13;;
55212;SDS011;41083;52.932;6.674;2023-08-01T12:49:29;1.63;;;0.70;;
55212;SDS011;41083;52.932;6.674;2023-08-01T12:51:55;2.80;;;0.68;;
55212;SDS011;41083;52.932;6.674;2023-08-01T12:54:22;4.53;;;0.90;;
55212;SDS011;41083;52.932;6.674;2023-08-01T12:56:48;1.50;;;0.60;;
55212;SDS011;41083;52.932;6.674;2023-08-01T12:59:13;2.72;;;0.90;;
55212;SDS011;41083;52.932;6.674;2023-08-01T13:01:39;1.88;;;0.90;;
55212;SDS011;41083;52.932;6.674;2023-08-01T13:04:04;4.40;;;0.73;;
55212;SDS011;41083;52.932;6.674;2023-08-01T13:06:30;3.65;;;1.17;;
55212;SDS011;41083;52.932;6.674;2023-08-01T13:08:55;2.95;;;1.20;;
55212;SDS011;41083;52.932;6.674;2023-08-01T13:11:21;2.10;;;0.90;;
55212;SDS011;41083;52.932;6.674;2023-08-01T13:13:47;6.07;;;1.15;;
55212;SDS011;41083;52.932;6.674;2023-08-01T13:16:12;2.35;;;0.98;;
55212;SDS011;41083;52.932;6.674;2023-08-01T13:18:39;1.77;;;0.95;;
55212;SDS011;41083;52.932;6.674;2023-08-01T13:21:08;3.03;;;1.10;;
55212;SDS011;41083;52.932;6.674;2023-08-01T13:23:34;5.43;;;1.00;;
55212;SDS011;41083;52.932;6.674;2023-08-01T13:26:00;2.08;;;0.80;;
55212;SDS011;41083;52.932;6.674;2023-08-01T13:28:27;2.90;;;1.00;;
55212;SDS011;41083;52.932;6.674;2023-08-01T13:30:53;7.28;;;1.67;;
55212;SDS011;41083;52.932;6.674;2023-08-01T13:33:18;5.43;;;1.50;;
55212;SDS011;41083;52.932;6.674;2023-08-01T13:35:44;2.38;;;1.00;;
55212;SDS011;41083;52.932;6.674;2023-08-01T13:38:09;3.00;;;1.05;;
55212;SDS011;41083;52.932;6.674;2023-08-01T13:40:35;2.92;;;0.85;;
55212;SDS011;41083;52.932;6.674;2023-08-01T13:43:01;2.78;;;0.80;;
55212;SDS011;41083;52.932;6.674;2023-08-01T13:45:29;2.72;;;0.80;;
55212;SDS011;41083;52.932;6.674;2023-08-01T13:47:56;3.13;;;0.70;;
55212;SDS011;41083;52.932;6.674;2023-08-01T13:50:22;1.73;;;0.52;;
55212;SDS011;41083;52.932;6.674;2023-08-01T13:52:47;2.63;;;0.50;;
55212;SDS011;41083;52.932;6.674;2023-08-01T13:55:13;2.63;;;0.50;;
55212;SDS011;41083;52.932;6.674;2023-08-01T13:57:42;1.10;;;0.60;;
55212;SDS011;41083;52.932;6.674;2023-08-01T14:00:07;1.38;;;0.68;;
55212;SDS011;41083;52.932;6.674;2023-08-01T14:02:33;3.17;;;0.98;;
55212;SDS011;41083;52.932;6.674;2023-08-01T14:04:59;3.28;;;0.52;;
55212;SDS011;41083;52.932;6.674;2023-08-01T14:07:25;2.55;;;0.73;;
55212;SDS011;41083;52.932;6.674;2023-08-01T14:09:50;1.25;;;0.60;;
55212;SDS011;41083;52.932;6.674;2023-08-01T14:12:16;0.75;;;0.43;;
55212;SDS011;41083;52.932;6.674;2023-08-01T14:14:44;1.20;;;0.50;;
55212;SDS011;41083;52.932;6.674;2023-08-01T14:17:09;2.80;;;0.70;;
55212;SDS011;41083;52.932;6.674;2023-08-01T14:19:35;1.65;;;0.68;;
55212;SDS011;41083;52.932;6.674;2023-08-01T14:22:01;2.58;;;0.60;;
55212;SDS011;41083;52.932;6.674;2023-08-01T14:24:26;2.47;;;0.70;;
55212;SDS011;41083;52.932;6.674;2023-08-01T14:26:52;1.85;;;0.68;;
55212;SDS011;41083;52.932;6.674;2023-08-01T14:29:18;1.63;;;0.55;;
55212;SDS011;41083;52.932;6.674;2023-08-01T14:31:47;2.25;;;0.65;;
55212;SDS011;41083;52.932;6.674;2023-08-01T14:34:14;1.98;;;0.90;;
55212;SDS011;41083;52.932;6.674;2023-08-01T14:36:39;2.67;;;0.68;;
55212;SDS011;41083;52.932;6.674;2023-08-01T14:39:05;3.35;;;0.70;;
55212;SDS011;41083;52.932;6.674;2023-08-01T14:41:30;2.38;;;0.93;;
55212;SDS011;41083;52.932;6.674;2023-08-01T14:43:56;1.10;;;0.57;;
55212;SDS011;41083;52.932;6.674;2023-08-01T14:46:21;2.60;;;0.85;;